sensor_id;sensor_type;location;lat;lon;timestamp;P1;durP1;ratioP1;P2;durP2;ratioP2
62014;SDS011;47970;52.396;9.586;2022-08-19T18:33:35;2.25;;;1.05;;
62014;SDS011;47970;52.396;9.586;2022-08-19T18:36:00;3.75;;;1.10;;
62014;SDS011;47970;52.396;9.586;2022-08-19T18:38:27;5.63;;;1.20;;
62014;SDS011;47970;52.396;9.586;2022-08-19T18:41:11;2.45;;;1.13;;
62014;SDS011;47970;52.396;9.586;2022-08-19T18:43:54;3.03;;;1.00;;
62014;SDS011;47970;52.396;9.586;2022-08-19T18:46:38;3.25;;;0.90;;
62014;SDS011;47970;52.396;9.586;2022-08-19T18:49:27;2.70;;;0.82;;
62014;SDS011;47970;52.396;9.586;2022-08-19T18:51:52;2.20;;;1.20;;
62014;SDS011;47970;52.396;9.586;2022-08-19T18:54:18;4.13;;;1.20;;
62014;SDS011;47970;52.396;9.586;2022-08-19T18:56:43;1.85;;;0.98;;
62014;SDS011;47970;52.396;9.586;2022-08-19T18:59:10;2.15;;;1.02;;
62014;SDS011;47970;52.396;9.586;2022-08-19T19:01:36;4.25;;;1.02;;
62014;SDS011;47970;52.396;9.586;2022-08-19T19:04:04;2.60;;;1.13;;
62014;SDS011;47970;52.396;9.586;2022-08-19T19:06:32;2.00;;;1.10;;
62014;SDS011;47970;52.396;9.586;2022-08-19T19:08:59;3.03;;;1.10;;
62014;SDS011;47970;52.396;9.586;2022-08-19T19:11:26;2.88;;;1.17;;
62014;SDS011;47970;52.396;9.586;2022-08-19T19:13:51;2.20;;;1.10;;
62014;SDS011;47970;52.396;9.586;2022-08-19T19:16:17;2.92;;;1.08;;
62014;SDS011;47970;52.396;9.586;2022-08-19T19:18:42;2.80;;;1.20;;
62014;SDS011;47970;52.396;9.586;2022-08-19T19:21:08;3.05;;;1.42;;
62014;SDS011;47970;52.396;9.586;2022-08-19T19:23:35;4.90;;;1.50;;
62014;SDS011;47970;52.396;9.586;2022-08-19T19:26:04;2.70;;;1.30;;
62014;SDS011;47970;52.396;9.586;2022-08-19T19:28:30;3.55;;;1.33;;
62014;SDS011;47970;52.396;9.586;2022-08-19T19:30:56;1.87;;;0.93;;
62014;SDS011;47970;52.396;9.586;2022-08-19T19:33:25;1.80;;;1.00;;
62014;SDS011;47970;52.396;9.586;2022-08-19T19:35:50;1.65;;;1.15;;
62014;SDS011;47970;52.396;9.586;2022-08-19T19:38:15;2.87;;;1.10;;
62014;SDS011;47970;52.396;9.586;2022-08-19T19:40:41;1.70;;;1.20;;
62014;SDS011;47970;52.396;9.586;2022-08-19T19:43:06;6.87;;;1.20;;
62014;SDS011;47970;52.396;9.586;2022-08-19T19:45:32;2.90;;;1.40;;
62014;SDS011;47970;52.396;9.586;2022-08-19T19:47:57;3.17;;;1.75;;
62014;SDS011;47970;52.396;9.586;2022-08-19T19:50:24;2.83;;;1.30;;
62014;SDS011;47970;52.396;9.586;2022-08-19T19:52:49;4.05;;;1.60;;
62014;SDS011;47970;52.396;9.586;2022-08-19T19:55:15;7.57;;;2.15;;
62014;SDS011;47970;52.396;9.586;2022-08-19T19:57:43;4.75;;;1.85;;
62014;SDS011;47970;52.396;9.586;2022-08-19T20:00:10;7.90;;;2.42;;
62014;SDS011;47970;52.396;9.586;2022-08-19T20:02:37;7.60;;;2.28;;
62014;SDS011;47970;52.396;9.586;2022-08-19T20:05:02;6.65;;;2.40;;
62014;SDS011;47970;52.396;9.586;2022-08-19T20:07:27;5.75;;;2.00;;
62014;SDS011;47970;52.396;9.586;2022-08-19T20:10:11;4.78;;;1.83;;
62014;SDS011;47970;52.396;9.586;2022-08-19T20:12:37;5.78;;;1.40;;
62014;SDS011;47970;52.396;9.586;2022-08-19T20:15:03;3.67;;;1.60;;
62014;SDS011;47970;52.396;9.586;2022-08-19T20:17:30;3.53;;;1.33;;
62014;SDS011;47970;52.396;9.586;2022-08-19T20:19:56;5.13;;;1.50;;
62014;SDS011;47970;52.396;9.586;2022-08-19T20:22:22;3.83;;;1.60;;
62014;SDS011;47970;52.396;9.586;2022-08-19T20:24:47;2.23;;;1.07;;
62014;SDS011;47970;52.396;9.586;2022-08-19T20:27:12;2.67;;;1.20;;
62014;SDS011;47970;52.396;9.586;2022-08-19T20:29:38;3.33;;;1.70;;
62014;SDS011;47970;52.396;9.586;2022-08-19T20:32:03;4.18;;;1.80;;
62014;SDS011;47970;52.396;9.586;2022-08-19T20:34:28;4.90;;;1.63;;
62014;SDS011;47970;52.396;9.586;2022-08-19T20:36:53;4.97;;;2.33;;
62014;SDS011;47970;52.396;9.586;2022-08-19T20:39:19;4.53;;;1.85;;
62014;SDS011;47970;52.396;9.586;2022-08-19T20:41:44;5.10;;;1.70;;
62014;SDS011;47970;52.396;9.586;2022-08-19T20:44:10;8.15;;;1.80;;
62014;SDS011;47970;52.396;9.586;2022-08-19T20:46:35;4.32;;;1.80;;
62014;SDS011;47970;52.396;9.586;2022-08-19T20:49:01;2.53;;;1.40;;
62014;SDS011;47970;52.396;9.586;2022-08-19T20:51:27;2.40;;;1.30;;
62014;SDS011;47970;52.396;9.586;2022-08-19T20:53:52;5.00;;;1.42;;
62014;SDS011;47970;52.396;9.586;2022-08-19T20:56:17;3.40;;;1.77;;
62014;SDS011;47970;52.396;9.586;2022-08-19T20:58:43;3.53;;;1.70;;
62014;SDS011;47970;52.396;9.586;2022-08-19T21:01:08;2.45;;;1.30;;
62014;SDS011;47970;52.396;9.586;2022-08-19T21:03:35;4.45;;;1.90;;
62014;SDS011;47970;52.396;9.586;2022-08-19T21:06:01;4.10;;;1.63;;
62014;SDS011;47970;52.396;9.586;2022-08-19T21:08:27;5.60;;;1.80;;
62014;SDS011;47970;52.396;9.586;2022-08-19T21:10:53;2.88;;;1.50;;
62014;SDS011;47970;52.396;9.586;2022-08-19T21:13:19;4.80;;;2.00;;
62014;SDS011;47970;52.396;9.586;2022-08-19T21:15:44;3.13;;;1.50;;
62014;SDS011;47970;52.396;9.586;2022-08-19T21:18:10;3.15;;;1.48;;
62014;SDS011;47970;52.396;9.586;2022-08-19T21:20:36;4.60;;;1.60;;
62014;SDS011;47970;52.396;9.586;2022-08-19T21:23:05;5.43;;;1.50;;
62014;SDS011;47970;52.396;9.586;2022-08-19T21:25:31;5.47;;;1.70;;
62014;SDS011;47970;52.396;9.586;2022-08-19T21:27:56;3.95;;;1.63;;
62014;SDS011;47970;52.396;9.586;2022-08-19T21:30:21;4.87;;;1.60;;
62014;SDS011;47970;52.396;9.586;2022-08-19T21:32:47;5.20;;;1.63;;
62014;SDS011;47970;52.396;9.586;2022-08-19T21:35:12;3.33;;;1.47;;
62014;SDS011;47970;52.396;9.586;2022-08-19T21:37:37;7.15;;;1.80;;
62014;SDS011;47970;52.396;9.586;2022-08-19T21:40:03;7.15;;;1.70;;
62014;SDS011;47970;52.396;9.586;2022-08-19T21:42:29;7.25;;;1.88;;
62014;SDS011;47970;52.396;9.586;2022-08-19T21:44:54;8.30;;;1.93;;
62014;SDS011;47970;52.396;9.586;2022-08-19T21:47:19;6.80;;;2.23;;
62014;SDS011;47970;52.396;9.586;2022-08-19T21:49:44;5.10;;;1.67;;
62014;SDS011;47970;52.396;9.586;2022-08-19T21:52:10;5.75;;;2.00;;
62014;SDS011;47970;52.396;9.586;2022-08-19T21:54:35;4.27;;;1.30;;
62014;SDS011;47970;52.396;9.586;2022-08-19T21:57:00;5.07;;;2.23;;
62014;SDS011;47970;52.396;9.586;2022-08-19T21:59:25;4.50;;;2.40;;
62014;SDS011;47970;52.396;9.586;2022-08-19T22:01:51;6.03;;;1.93;;
62014;SDS011;47970;52.396;9.586;2022-08-19T22:04:16;5.25;;;1.95;;
62014;SDS011;47970;52.396;9.586;2022-08-19T22:06:41;3.38;;;1.63;;
62014;SDS011;47970;52.396;9.586;2022-08-19T22:09:07;5.60;;;2.05;;
62014;SDS011;47970;52.396;9.586;2022-08-19T22:11:33;5.82;;;1.88;;
62014;SDS011;47970;52.396;9.586;2022-08-19T22:13:59;8.25;;;2.90;;
62014;SDS011;47970;52.396;9.586;2022-08-19T22:16:24;8.87;;;3.93;;
62014;SDS011;47970;52.396;9.586;2022-08-19T22:18:49;10.00;;;3.30;;
62014;SDS011;47970;52.396;9.586;2022-08-19T22:21:15;3.60;;;1.70;;
62014;SDS011;47970;52.396;9.586;2022-08-19T22:23:41;4.78;;;1.80;;
62014;SDS011;47970;52.396;9.586;2022-08-19T22:26:08;6.20;;;1.70;;
62014;SDS011;47970;52.396;9.586;2022-08-19T22:28:33;4.75;;;1.70;;
62014;SDS011;47970;52.396;9.586;2022-08-19T22:30:58;2.90;;;1.47;;
62014;SDS011;47970;52.396;9.586;2022-08-19T22:33:24;3.97;;;1.83;;
62014;SDS011;47970;52.396;9.586;2022-08-19T22:35:51;3.80;;;1.67;;
62014;SDS011;47970;52.396;9.586;2022-08-19T22:38:17;4.35;;;1.90;;
62014;SDS011;47970;52.396;9.586;2022-08-19T22:40:44;4.22;;;1.63;;
62014;SDS011;47970;52.396;9.586;2022-08-19T22:43:32;5.40;;;1.85;;
62014;SDS011;47970;52.396;9.586;2022-08-19T22:45:58;4.05;;;1.90;;
62014;SDS011;47970;52.396;9.586;2022-08-19T22:48:25;4.22;;;1.88;;
62014;SDS011;47970;52.396;9.586;2022-08-19T22:50:52;9.40;;;1.80;;
62014;SDS011;47970;52.396;9.586;2022-08-19T22:53:37;3.42;;;1.35;;
62014;SDS011;47970;52.396;9.586;2022-08-19T22:56:03;6.05;;;1.80;;
62014;SDS011;47970;52.396;9.586;2022-08-19T22:58:28;6.65;;;1.73;;
62014;SDS011;47970;52.396;9.586;2022-08-19T23:00:54;6.47;;;1.50;;
62014;SDS011;47970;52.396;9.586;2022-08-19T23:03:20;5.93;;;1.42;;
62014;SDS011;47970;52.396;9.586;2022-08-19T23:05:45;3.75;;;1.50;;
62014;SDS011;47970;52.396;9.586;2022-08-19T23:08:10;4.20;;;1.50;;
62014;SDS011;47970;52.396;9.586;2022-08-19T23:10:35;4.57;;;1.80;;
62014;SDS011;47970;52.396;9.586;2022-08-19T23:13:00;4.57;;;1.40;;
62014;SDS011;47970;52.396;9.586;2022-08-19T23:15:27;2.77;;;1.47;;
62014;SDS011;47970;52.396;9.586;2022-08-19T23:17:53;5.35;;;1.70;;
62014;SDS011;47970;52.396;9.586;2022-08-19T23:20:19;4.53;;;1.90;;
62014;SDS011;47970;52.396;9.586;2022-08-19T23:22:45;6.32;;;1.90;;
62014;SDS011;47970;52.396;9.586;2022-08-19T23:25:14;4.35;;;1.60;;
62014;SDS011;47970;52.396;9.586;2022-08-19T23:27:40;6.40;;;1.80;;
62014;SDS011;47970;52.396;9.586;2022-08-19T23:30:23;5.57;;;2.00;;
62014;SDS011;47970;52.396;9.586;2022-08-19T23:33:02;4.07;;;1.70;;
62014;SDS011;47970;52.396;9.586;2022-08-19T23:35:30;5.50;;;1.98;;
62014;SDS011;47970;52.396;9.586;2022-08-19T23:37:57;6.18;;;1.88;;
62014;SDS011;47970;52.396;9.586;2022-08-19T23:40:22;7.07;;;2.03;;
62014;SDS011;47970;52.396;9.586;2022-08-19T23:42:48;6.25;;;2.40;;
62014;SDS011;47970;52.396;9.586;2022-08-19T23:45:14;4.30;;;1.73;;
62014;SDS011;47970;52.396;9.586;2022-08-19T23:47:39;3.58;;;1.85;;
62014;SDS011;47970;52.396;9.586;2022-08-19T23:50:05;4.45;;;2.00;;
62014;SDS011;47970;52.396;9.586;2022-08-19T23:52:35;3.15;;;1.67;;
62014;SDS011;47970;52.396;9.586;2022-08-19T23:55:05;3.47;;;1.80;;
62014;SDS011;47970;52.396;9.586;2022-08-19T23:57:31;3.28;;;2.10;;
62014;SDS011;47970;52.396;9.586;2022-08-19T23:59:56;5.22;;;1.90;;
